createdAt,value
2018-11-28T05:03:13.462Z,67.10
2018-11-28T05:05:36.174Z,65.50
2018-11-28T05:07:58.934Z,66.87
2018-11-28T05:10:24.415Z,63.50
2018-11-28T05:12:47.166Z,65.77
2018-11-28T06:01:26.773Z,73.33
2018-11-28T06:03:49.437Z,67.07
2018-11-28T06:06:12.232Z,68.90
2018-11-28T06:08:34.937Z,61.10
2018-11-28T06:10:57.584Z,63.93
2018-11-28T06:13:20.247Z,60.33
2018-11-28T07:01:59.395Z,45.17
2018-11-28T07:04:22.061Z,45.17
2018-11-28T07:06:44.714Z,48.97
2018-11-28T07:09:07.923Z,44.53
2018-11-28T07:11:30.595Z,42.50
2018-11-28T07:13:53.229Z,45.07
2018-11-28T08:02:35.077Z,40.23
2018-11-28T08:04:57.755Z,45.93
2018-11-28T08:07:20.421Z,87.63
2018-11-28T08:09:43.133Z,65.53
2018-11-28T08:12:05.958Z,50.77
2018-11-28T08:14:28.614Z,38.70
2018-11-28T09:00:26.921Z,31.70
2018-11-28T09:02:51.019Z,28.63
2018-11-28T09:05:14.272Z,29.83
2018-11-28T09:07:37.331Z,30.43
2018-11-28T09:10:00.375Z,32.47
2018-11-28T09:12:23.324Z,29.73
2018-11-28T09:14:46.972Z,30.07
2018-11-28T10:00:22.324Z,31.03
2018-11-28T10:02:45.059Z,30.23
2018-11-28T10:05:13.717Z,30.43
2018-11-28T10:07:36.385Z,35.13
2018-11-28T10:10:06.753Z,29.57
2018-11-28T10:12:29.450Z,29.53
2018-11-28T10:14:52.138Z,30.80
2018-11-28T10:20:20.227Z,30.83
2018-11-28T10:22:43.181Z,28.37
2018-11-28T10:25:07.435Z,27.80
2018-11-28T10:27:30.144Z,34.37
2018-11-28T10:29:52.872Z,34.90
2018-11-28T10:32:15.549Z,32.27
2018-11-28T10:34:38.219Z,30.57
2018-11-28T10:37:00.900Z,38.13
2018-11-28T10:39:23.653Z,37.30
2018-11-28T10:41:46.354Z,26.40
2018-11-28T10:44:09.038Z,43.43
2018-11-28T10:46:31.739Z,32.23
2018-11-28T10:48:54.470Z,31.80
2018-11-28T10:51:17.133Z,24.17
2018-11-28T10:53:39.858Z,27.77
2018-11-28T10:56:02.546Z,27.10
2018-11-28T10:58:25.333Z,26.67
2018-11-28T11:00:53.951Z,29.27
2018-11-28T11:03:22.064Z,43.63
2018-11-28T11:05:50.306Z,35.67
2018-11-28T11:08:18.902Z,54.50
2018-11-28T11:10:47.289Z,22.97
2018-11-28T11:13:15.789Z,34.73
2018-11-28T12:01:55.433Z,22.93
2018-11-28T12:04:18.130Z,22.83
2018-11-28T12:06:40.786Z,23.43
2018-11-28T12:09:04.243Z,22.33
2018-11-28T12:11:26.957Z,22.80
2018-11-28T12:13:49.617Z,21.97
2018-11-28T13:02:30.796Z,18.00
2018-11-28T13:04:53.521Z,17.10
2018-11-28T13:07:16.259Z,21.07
2018-11-28T13:09:38.949Z,16.53
2018-11-28T13:12:01.667Z,17.10
2018-11-28T13:14:24.357Z,17.87
2018-11-28T14:00:13.023Z,24.17
2018-11-28T14:02:35.843Z,27.50
2018-11-28T14:04:58.496Z,27.00
2018-11-28T14:07:21.239Z,24.87
2018-11-28T14:09:43.986Z,27.37
2018-11-28T14:12:06.681Z,25.23
2018-11-28T14:14:29.375Z,25.67
2018-11-28T15:00:21.474Z,27.23
2018-11-28T15:02:44.817Z,29.03
2018-11-28T15:05:17.985Z,27.83
2018-11-28T15:07:40.622Z,26.47
2018-11-28T15:10:03.445Z,26.57
2018-11-28T15:12:27.277Z,26.90
2018-11-28T15:14:49.993Z,27.33
2018-11-28T16:00:24.578Z,27.37
2018-11-28T16:02:47.274Z,26.47
2018-11-28T16:05:10.002Z,33.83
2018-11-28T16:07:32.657Z,26.77
2018-11-28T16:10:01.122Z,32.83
2018-11-28T16:12:23.857Z,27.10
2018-11-28T16:14:46.563Z,29.37
2018-11-28T17:00:24.399Z,41.23
2018-11-28T17:02:47.185Z,42.03
2018-11-28T17:05:17.026Z,40.97
2018-11-28T17:07:40.002Z,40.43
2018-11-28T18:15:14.178Z,40.50
2018-11-28T18:17:36.909Z,38.13
2018-11-28T18:19:59.609Z,37.53
2018-11-28T18:22:22.292Z,40.30
2018-11-28T18:24:44.971Z,35.50
2018-11-28T18:27:07.634Z,37.50
2018-11-28T18:29:30.283Z,41.87
2018-11-28T19:02:37.940Z,41.70
2018-11-28T19:05:00.697Z,43.27
2018-11-28T19:07:23.361Z,41.80
2018-11-28T19:09:52.790Z,43.23
2018-11-28T19:12:15.457Z,40.73
2018-11-28T19:14:38.298Z,41.87
2018-11-28T20:00:16.337Z,39.60
2018-11-28T20:02:39.192Z,42.07
2018-11-28T20:05:01.892Z,40.53
2018-11-28T20:07:27.487Z,36.60
2018-11-28T20:09:54.698Z,41.30
2018-11-28T20:12:17.373Z,42.40
2018-11-28T20:14:40.054Z,41.33
2018-11-28T21:00:21.754Z,37.73
2018-11-28T21:02:46.757Z,44.93
2018-11-28T21:05:10.354Z,46.03
2018-11-28T21:07:33.268Z,44.20
2018-11-28T21:10:00.842Z,42.17
2018-11-28T21:12:23.563Z,45.73
2018-11-28T21:14:46.329Z,39.93
